Time;durP1;ratioP1;P1;durP2;ratioP2;P2;SDS_P1;SDS_P2;PMS_P1;PMS_P2;Temp;Humidity;BMP_temperature;BMP_pressure;BME280_temperature;BME280_humidity;BME280_pressure;Samples;Min_cycle;Max_cycle;Signal;HPM_P1;HPM_P2
2021/05/22 00:01:41;;;;;;;7.15;1.83;;;;;;;;;;3618109;39;20031;-70
2021/05/22 00:04:08;;;;;;;8.45;1.63;;;;;;;;;;3617277;39;20135;-68
2021/05/22 00:06:34;;;;;;;5.70;1.63;;;;;;;;;;3618900;39;20116;-69
2021/05/22 00:08:59;;;;;;;6.93;1.77;;;;;;;;;;3618072;39;20035;-69
2021/05/22 00:11:24;;;;;;;5.18;1.38;;;;;;;;;;3618051;39;20046;-69
2021/05/22 00:13:50;;;;;;;7.65;1.73;;;;;;;;;;3616345;39;20035;-68
2021/05/22 00:16:16;;;;;;;4.20;1.40;;;;;;;;;;3617492;39;20149;-67
2021/05/22 00:18:41;;;;;;;7.15;2.53;;;;;;;;;;3617611;39;20035;-63
2021/05/22 00:21:07;;;;;;;6.00;2.13;;;;;;;;;;3608237;39;20380;-63
2021/05/22 00:23:33;;;;;;;4.18;1.45;;;;;;;;;;3617175;39;20027;-63
2021/05/22 00:25:58;;;;;;;5.22;1.20;;;;;;;;;;3615842;39;20028;-63
2021/05/22 00:28:23;;;;;;;4.47;1.15;;;;;;;;;;3617280;39;20031;-63
2021/05/22 00:30:49;;;;;;;6.40;1.75;;;;;;;;;;3616504;39;20028;-63
2021/05/22 00:33:14;;;;;;;4.50;1.92;;;;;;;;;;3617620;39;20079;-63
2021/05/22 00:35:40;;;;;;;6.63;1.60;;;;;;;;;;3616626;39;20074;-63
2021/05/22 00:38:05;;;;;;;3.80;1.60;;;;;;;;;;3617651;39;20031;-63
2021/05/22 00:40:30;;;;;;;8.35;1.73;;;;;;;;;;3617113;39;20035;-64
2021/05/22 00:42:56;;;;;;;7.90;1.80;;;;;;;;;;3616861;39;20027;-63
2021/05/22 00:45:23;;;;;;;3.47;1.10;;;;;;;;;;3618074;39;20120;-63
2021/05/22 00:47:51;;;;;;;4.93;1.08;;;;;;;;;;3613557;39;20027;-63
2021/05/22 00:50:23;;;;;;;5.72;1.20;;;;;;;;;;3616988;39;20038;-64
2021/05/22 00:52:49;;;;;;;6.57;1.33;;;;;;;;;;3617802;39;20031;-64
2021/05/22 00:55:15;;;;;;;3.83;1.30;;;;;;;;;;3616774;39;20050;-64
2021/05/22 00:57:42;;;;;;;4.28;1.40;;;;;;;;;;3619212;39;20034;-63
2021/05/22 01:00:11;;;;;;;4.72;1.38;;;;;;;;;;3617483;39;20418;-64
2021/05/22 01:02:36;;;;;;;8.30;0.93;;;;;;;;;;3617231;39;20047;-64
2021/05/22 01:05:03;;;;;;;4.03;1.50;;;;;;;;;;3618258;39;20127;-64
2021/05/22 01:07:28;;;;;;;4.25;1.50;;;;;;;;;;3616166;39;20150;-63
2021/05/22 01:09:56;;;;;;;5.38;1.45;;;;;;;;;;3618949;39;20043;-64
2021/05/22 01:12:27;;;;;;;3.30;1.38;;;;;;;;;;3615262;39;20053;-64
2021/05/22 01:15:02;;;;;;;5.22;1.27;;;;;;;;;;3617838;39;20064;-65
2021/05/22 01:17:27;;;;;;;5.95;1.17;;;;;;;;;;3616184;39;20486;-64
2021/05/22 01:20:13;;;;;;;6.13;1.35;;;;;;;;;;3616917;39;20047;-64
2021/05/22 01:22:45;;;;;;;4.25;1.50;;;;;;;;;;3615513;39;20046;-64
2021/05/22 01:25:19;;;;;;;4.72;1.65;;;;;;;;;;3617811;39;20038;-65
2021/05/22 01:27:45;;;;;;;7.40;1.85;;;;;;;;;;3618124;39;20026;-64
2021/05/22 01:30:11;;;;;;;3.20;1.25;;;;;;;;;;3617504;39;20446;-65
2021/05/22 01:32:38;;;;;;;9.05;1.60;;;;;;;;;;3617312;39;20050;-65
2021/05/22 01:35:04;;;;;;;5.72;1.60;;;;;;;;;;3617262;39;20370;-65
2021/05/22 01:37:30;;;;;;;2.75;1.15;;;;;;;;;;3615559;39;20463;-65
2021/05/22 01:39:55;;;;;;;4.22;1.40;;;;;;;;;;3618163;39;20058;-65
2021/05/22 01:42:21;;;;;;;4.05;1.42;;;;;;;;;;3617430;39;20067;-64
2021/05/22 01:44:48;;;;;;;4.25;1.20;;;;;;;;;;3617588;39;20039;-65
2021/05/22 01:47:15;;;;;;;2.75;0.93;;;;;;;;;;3615282;39;20280;-64
2021/05/22 01:49:40;;;;;;;3.45;1.30;;;;;;;;;;3615083;39;20023;-64
2021/05/22 01:52:06;;;;;;;6.32;1.65;;;;;;;;;;3616856;39;20033;-65
2021/05/22 01:54:32;;;;;;;11.63;1.98;;;;;;;;;;3616581;39;20055;-64
2021/05/22 01:56:59;;;;;;;4.10;1.40;;;;;;;;;;3616050;39;20092;-64
2021/05/22 01:59:24;;;;;;;4.30;1.45;;;;;;;;;;3618994;39;20076;-64
2021/05/22 02:01:51;;;;;;;3.72;1.27;;;;;;;;;;3617062;39;20055;-65
2021/05/22 02:04:20;;;;;;;6.03;1.45;;;;;;;;;;3617001;39;20449;-65
2021/05/22 02:06:48;;;;;;;4.05;1.90;;;;;;;;;;3616922;39;20282;-66
2021/05/22 02:09:15;;;;;;;10.95;1.33;;;;;;;;;;3616947;39;20455;-65
2021/05/22 02:11:44;;;;;;;7.20;1.70;;;;;;;;;;3616227;39;20039;-64
2021/05/22 02:14:11;;;;;;;7.03;1.50;;;;;;;;;;3616685;39;20043;-65
2021/05/22 02:16:46;;;;;;;4.88;1.20;;;;;;;;;;3617925;39;20027;-64
2021/05/22 02:19:12;;;;;;;3.08;1.33;;;;;;;;;;3616871;39;20067;-64
2021/05/22 02:21:42;;;;;;;3.40;1.27;;;;;;;;;;3616669;39;20031;-64
2021/05/22 02:24:11;;;;;;;2.45;1.10;;;;;;;;;;3615704;39;20051;-64
2021/05/22 02:26:36;;;;;;;6.70;1.40;;;;;;;;;;3613108;39;20035;-64
2021/05/22 02:29:02;;;;;;;4.32;1.00;;;;;;;;;;3617962;39;20043;-64
2021/05/22 02:31:30;;;;;;;4.30;1.50;;;;;;;;;;3608276;39;20049;-64
2021/05/22 02:34:03;;;;;;;2.95;1.33;;;;;;;;;;3605037;39;20131;-64
2021/05/22 02:36:29;;;;;;;4.72;1.15;;;;;;;;;;3619393;39;20276;-64
2021/05/22 02:38:54;;;;;;;4.35;1.48;;;;;;;;;;3607886;39;20055;-64
2021/05/22 02:41:21;;;;;;;3.47;1.25;;;;;;;;;;3617381;39;20046;-64
2021/05/22 02:43:51;;;;;;;4.30;1.45;;;;;;;;;;3605747;39;20055;-64
2021/05/22 02:46:19;;;;;;;4.25;1.33;;;;;;;;;;3616058;39;20055;-64
2021/05/22 02:48:45;;;;;;;8.40;1.98;;;;;;;;;;3615696;39;20628;-65
2021/05/22 02:51:14;;;;;;;4.20;1.42;;;;;;;;;;3615242;39;20067;-64
2021/05/22 02:53:42;;;;;;;3.92;1.00;;;;;;;;;;3616858;39;20046;-64
2021/05/22 02:56:09;;;;;;;5.30;1.75;;;;;;;;;;3617165;39;20044;-64
2021/05/22 02:58:36;;;;;;;2.55;1.00;;;;;;;;;;3614615;39;20039;-64
2021/05/22 03:01:05;;;;;;;8.45;1.17;;;;;;;;;;3615889;39;20028;-65
2021/05/22 03:03:31;;;;;;;2.97;1.42;;;;;;;;;;3616566;39;20039;-63
2021/05/22 03:06:01;;;;;;;4.43;1.30;;;;;;;;;;3617974;39;20031;-64
2021/05/22 03:08:27;;;;;;;3.60;1.40;;;;;;;;;;3617489;39;20040;-64
2021/05/22 03:10:55;;;;;;;10.40;2.10;;;;;;;;;;3618639;39;20275;-64
2021/05/22 03:13:20;;;;;;;4.72;1.40;;;;;;;;;;3617738;39;20035;-64
2021/05/22 03:15:46;;;;;;;5.03;1.50;;;;;;;;;;3617595;39;20039;-64
2021/05/22 03:18:12;;;;;;;2.75;1.30;;;;;;;;;;3617014;39;20030;-64
2021/05/22 03:20:37;;;;;;;4.70;1.50;;;;;;;;;;3617601;39;20128;-65
2021/05/22 03:23:03;;;;;;;6.28;1.52;;;;;;;;;;3618655;39;20429;-65
2021/05/22 03:25:28;;;;;;;6.22;1.55;;;;;;;;;;3617818;39;20112;-65
2021/05/22 03:27:54;;;;;;;4.25;1.38;;;;;;;;;;3617862;39;20032;-65
2021/05/22 03:30:20;;;;;;;7.28;1.70;;;;;;;;;;3619228;39;20116;-66
2021/05/22 03:32:45;;;;;;;3.67;1.60;;;;;;;;;;3616910;39;20558;-64
2021/05/22 03:35:11;;;;;;;4.45;1.48;;;;;;;;;;3618453;39;20369;-65
2021/05/22 03:37:36;;;;;;;4.25;1.35;;;;;;;;;;3616161;39;20028;-65
2021/05/22 03:40:02;;;;;;;4.28;1.20;;;;;;;;;;3615603;39;20035;-65
2021/05/22 03:42:28;;;;;;;2.90;0.90;;;;;;;;;;3616506;39;20410;-65
2021/05/22 03:44:53;;;;;;;6.47;1.08;;;;;;;;;;3617429;39;20098;-65
2021/05/22 03:47:18;;;;;;;8.93;1.15;;;;;;;;;;3615742;39;20027;-65
2021/05/22 03:49:44;;;;;;;9.57;1.58;;;;;;;;;;3618744;39;20050;-65
2021/05/22 03:52:09;;;;;;;6.60;1.77;;;;;;;;;;3617923;39;20035;-65
2021/05/22 03:54:35;;;;;;;6.50;1.48;;;;;;;;;;3617788;39;20053;-67
2021/05/22 03:57:00;;;;;;;4.22;1.42;;;;;;;;;;3618389;39;20051;-67
2021/05/22 03:59:25;;;;;;;7.47;1.63;;;;;;;;;;3618235;39;20046;-67
2021/05/22 04:01:51;;;;;;;4.47;1.38;;;;;;;;;;3617865;39;20054;-67
2021/05/22 04:04:16;;;;;;;5.55;1.27;;;;;;;;;;3618435;39;20050;-67
2021/05/22 04:06:41;;;;;;;6.60;1.40;;;;;;;;;;3616227;39;20263;-66
2021/05/22 04:09:07;;;;;;;7.60;1.20;;;;;;;;;;3617731;39;20076;-67
2021/05/22 04:11:32;;;;;;;3.63;1.13;;;;;;;;;;3617811;39;20370;-66
2021/05/22 04:13:58;;;;;;;6.50;2.42;;;;;;;;;;3605412;39;20047;-66
2021/05/22 04:16:23;;;;;;;5.70;1.63;;;;;;;;;;3616040;39;20247;-66
2021/05/22 04:18:48;;;;;;;7.35;1.48;;;;;;;;;;3618825;39;20035;-66
2021/05/22 04:21:14;;;;;;;3.67;1.27;;;;;;;;;;3617802;39;20442;-65
2021/05/22 04:23:40;;;;;;;7.95;1.30;;;;;;;;;;3617898;39;20064;-65
2021/05/22 04:26:06;;;;;;;5.75;1.63;;;;;;;;;;3615928;39;20032;-66
2021/05/22 04:28:31;;;;;;;4.10;1.50;;;;;;;;;;3617182;39;20131;-66
2021/05/22 04:30:57;;;;;;;6.43;1.80;;;;;;;;;;3617434;39;20031;-65
2021/05/22 04:33:22;;;;;;;6.40;1.80;;;;;;;;;;3617232;39;20044;-66
2021/05/22 04:35:47;;;;;;;5.32;1.88;;;;;;;;;;3617558;39;20031;-66
2021/05/22 04:38:13;;;;;;;10.45;1.77;;;;;;;;;;3617541;39;20054;-66
2021/05/22 04:40:38;;;;;;;8.13;1.98;;;;;;;;;;3617742;39;20052;-66
2021/05/22 04:43:04;;;;;;;4.40;1.60;;;;;;;;;;3617679;39;20027;-67
2021/05/22 04:45:29;;;;;;;4.47;1.67;;;;;;;;;;3616963;39;20039;-67
2021/05/22 04:47:55;;;;;;;8.32;2.08;;;;;;;;;;3617331;39;20031;-66
2021/05/22 04:50:20;;;;;;;5.82;1.52;;;;;;;;;;3617290;39;20043;-67
2021/05/22 04:52:46;;;;;;;6.20;1.42;;;;;;;;;;3617041;39;20038;-67
2021/05/22 04:55:12;;;;;;;5.28;1.30;;;;;;;;;;3617452;39;20039;-66
2021/05/22 04:57:37;;;;;;;7.95;1.83;;;;;;;;;;3617842;39;20046;-67
2021/05/22 05:00:07;;;;;;;9.38;1.95;;;;;;;;;;3617806;39;20278;-66
2021/05/22 05:02:32;;;;;;;5.90;1.80;;;;;;;;;;3616155;39;20035;-67
2021/05/22 05:04:57;;;;;;;10.27;1.70;;;;;;;;;;3617758;39;20134;-66
2021/05/22 05:07:23;;;;;;;5.72;1.65;;;;;;;;;;3617590;39;20116;-68
2021/05/22 05:09:50;;;;;;;5.22;1.70;;;;;;;;;;3617480;39;20031;-67
2021/05/22 05:12:16;;;;;;;6.82;1.50;;;;;;;;;;3616414;39;20401;-68
2021/05/22 05:14:41;;;;;;;9.45;1.95;;;;;;;;;;3617306;39;20121;-68
2021/05/22 05:17:07;;;;;;;5.47;1.80;;;;;;;;;;3617761;39;20039;-71
2021/05/22 05:19:32;;;;;;;6.70;1.45;;;;;;;;;;3616082;39;20042;-69
2021/05/22 05:21:58;;;;;;;7.13;1.80;;;;;;;;;;3616642;39;20038;-69
2021/05/22 05:24:24;;;;;;;6.65;1.70;;;;;;;;;;3617774;39;20059;-68
2021/05/22 05:26:50;;;;;;;5.57;2.22;;;;;;;;;;3617284;39;20054;-69
2021/05/22 05:29:16;;;;;;;11.32;2.10;;;;;;;;;;3616519;39;20035;-70
2021/05/22 05:31:41;;;;;;;11.85;1.60;;;;;;;;;;3616625;39;20047;-69
2021/05/22 05:34:07;;;;;;;3.50;1.05;;;;;;;;;;3616570;39;20038;-68
2021/05/22 05:36:33;;;;;;;10.07;1.75;;;;;;;;;;3617415;39;20031;-69
2021/05/22 05:38:59;;;;;;;6.82;1.48;;;;;;;;;;3616516;39;20031;-68
2021/05/22 05:41:24;;;;;;;5.30;1.90;;;;;;;;;;3616438;39;20581;-69
2021/05/22 05:43:49;;;;;;;5.88;1.98;;;;;;;;;;3616185;39;20063;-69
2021/05/22 05:46:15;;;;;;;9.32;1.95;;;;;;;;;;3616110;39;20500;-68
2021/05/22 05:48:40;;;;;;;8.77;1.63;;;;;;;;;;3617435;39;20035;-67
2021/05/22 05:51:06;;;;;;;7.53;1.95;;;;;;;;;;3617596;39;20031;-68
2021/05/22 05:53:31;;;;;;;9.40;1.98;;;;;;;;;;3608411;39;20035;-71
2021/05/22 05:55:57;;;;;;;7.70;1.73;;;;;;;;;;3617505;39;20382;-69
2021/05/22 05:58:22;;;;;;;7.50;2.10;;;;;;;;;;3617038;39;20429;-70
2021/05/22 06:00:48;;;;;;;6.30;2.00;;;;;;;;;;3617867;39;20261;-69
2021/05/22 06:03:13;;;;;;;6.43;1.90;;;;;;;;;;3614940;39;20060;-70
2021/05/22 06:05:39;;;;;;;10.13;2.13;;;;;;;;;;3618494;39;20361;-70
2021/05/22 06:08:04;;;;;;;8.55;1.90;;;;;;;;;;3618585;39;20496;-70
2021/05/22 06:10:30;;;;;;;7.60;1.67;;;;;;;;;;3615446;39;20027;-70
2021/05/22 06:12:58;;;;;;;8.10;2.22;;;;;;;;;;3605657;39;20031;-65
2021/05/22 06:15:30;;;;;;;8.80;2.33;;;;;;;;;;3614802;39;20159;-69
2021/05/22 06:17:56;;;;;;;7.35;1.80;;;;;;;;;;3615207;39;20119;-70
2021/05/22 06:20:22;;;;;;;8.75;2.15;;;;;;;;;;3615125;39;20052;-68
2021/05/22 06:22:48;;;;;;;8.80;3.00;;;;;;;;;;3616044;39;20399;-70
2021/05/22 06:25:14;;;;;;;6.40;2.10;;;;;;;;;;3616114;39;20043;-71
2021/05/22 06:27:40;;;;;;;9.30;1.88;;;;;;;;;;3610076;39;20351;-67
2021/05/22 06:30:08;;;;;;;7.78;2.22;;;;;;;;;;3613036;39;20035;-66
2021/05/22 06:32:34;;;;;;;4.82;1.50;;;;;;;;;;3615986;39;20031;-71
2021/05/22 06:34:59;;;;;;;7.60;2.10;;;;;;;;;;3614416;39;20119;-69
2021/05/22 06:37:25;;;;;;;5.40;1.65;;;;;;;;;;3615639;39;20049;-69
2021/05/22 06:39:52;;;;;;;5.82;2.17;;;;;;;;;;3615184;39;20050;-69
2021/05/22 06:42:18;;;;;;;5.05;1.33;;;;;;;;;;3607942;39;20047;-65
2021/05/22 06:44:56;;;;;;;6.55;1.90;;;;;;;;;;3617422;39;20042;-70
2021/05/22 06:47:21;;;;;;;5.50;2.17;;;;;;;;;;3613160;39;20075;-68
2021/05/22 06:49:46;;;;;;;6.53;1.65;;;;;;;;;;3616327;39;20374;-68
2021/05/22 06:52:12;;;;;;;13.15;2.42;;;;;;;;;;3616324;39;20039;-67
2021/05/22 06:54:37;;;;;;;7.22;1.70;;;;;;;;;;3616960;39;20055;-66
2021/05/22 06:57:03;;;;;;;12.85;2.60;;;;;;;;;;3617605;39;20251;-68
2021/05/22 06:59:28;;;;;;;5.97;1.50;;;;;;;;;;3617675;39;20048;-68
2021/05/22 07:01:54;;;;;;;20.73;2.35;;;;;;;;;;3617161;39;20031;-67
2021/05/22 07:04:19;;;;;;;8.25;2.22;;;;;;;;;;3616052;39;20031;-68
2021/05/22 07:06:44;;;;;;;6.28;1.70;;;;;;;;;;3617032;39;20067;-67
2021/05/22 07:09:10;;;;;;;7.32;1.77;;;;;;;;;;3617275;39;20127;-68
2021/05/22 07:11:35;;;;;;;11.63;2.25;;;;;;;;;;3606320;39;20463;-67
2021/05/22 07:14:01;;;;;;;5.90;1.90;;;;;;;;;;3616868;39;20042;-69
2021/05/22 07:16:27;;;;;;;12.90;2.47;;;;;;;;;;3617011;39;20447;-70
2021/05/22 07:18:52;;;;;;;8.95;1.60;;;;;;;;;;3617511;39;20027;-67
2021/05/22 07:21:17;;;;;;;9.88;1.50;;;;;;;;;;3616602;39;20043;-68
2021/05/22 07:23:43;;;;;;;8.25;2.03;;;;;;;;;;3617158;39;20027;-67
2021/05/22 07:26:08;;;;;;;7.53;2.65;;;;;;;;;;3617100;39;20059;-67
2021/05/22 07:28:34;;;;;;;7.78;1.80;;;;;;;;;;3617194;39;20043;-68
2021/05/22 07:31:00;;;;;;;8.23;1.88;;;;;;;;;;3615645;39;20035;-66
2021/05/22 07:33:27;;;;;;;8.95;2.67;;;;;;;;;;3616943;39;20142;-66
2021/05/22 07:35:54;;;;;;;8.43;1.98;;;;;;;;;;3617191;39;20039;-67
2021/05/22 07:38:20;;;;;;;13.57;2.65;;;;;;;;;;3606147;39;20054;-67
2021/05/22 07:40:45;;;;;;;8.40;2.55;;;;;;;;;;3617950;39;20280;-67
2021/05/22 07:43:11;;;;;;;7.50;1.83;;;;;;;;;;3616988;39;20032;-65
2021/05/22 07:45:36;;;;;;;8.18;2.25;;;;;;;;;;3616300;39;20046;-66
2021/05/22 07:48:03;;;;;;;5.07;1.38;;;;;;;;;;3616229;39;20131;-65
2021/05/22 07:50:30;;;;;;;5.82;2.08;;;;;;;;;;3616248;39;20413;-65
2021/05/22 07:52:55;;;;;;;6.70;1.98;;;;;;;;;;3616262;39;20429;-66
2021/05/22 07:55:21;;;;;;;6.53;2.47;;;;;;;;;;3616492;39;20055;-66
2021/05/22 07:57:46;;;;;;;7.85;1.98;;;;;;;;;;3615989;39;20394;-65
2021/05/22 08:00:12;;;;;;;7.13;1.60;;;;;;;;;;3617222;39;20043;-66
2021/05/22 08:02:38;;;;;;;6.07;1.73;;;;;;;;;;3616952;39;20474;-65
2021/05/22 08:05:06;;;;;;;8.30;2.10;;;;;;;;;;3616110;39;20071;-64
2021/05/22 08:07:31;;;;;;;9.48;2.38;;;;;;;;;;3616293;39;20054;-66
2021/05/22 08:09:57;;;;;;;13.15;1.95;;;;;;;;;;3617166;39;20035;-65
2021/05/22 08:12:22;;;;;;;5.95;1.85;;;;;;;;;;3616913;39;20130;-66
2021/05/22 08:14:50;;;;;;;6.72;1.88;;;;;;;;;;3606355;39;20279;-65
2021/05/22 08:17:15;;;;;;;4.75;1.40;;;;;;;;;;3617213;39;20031;-66
2021/05/22 08:19:40;;;;;;;11.10;1.92;;;;;;;;;;3616912;39;20061;-65
2021/05/22 08:22:06;;;;;;;9.90;1.60;;;;;;;;;;3616499;39;20127;-66
2021/05/22 08:24:31;;;;;;;7.10;1.50;;;;;;;;;;3616907;39;20035;-65
2021/05/22 08:26:57;;;;;;;11.35;1.95;;;;;;;;;;3617283;39;20027;-65
2021/05/22 08:29:22;;;;;;;10.02;2.28;;;;;;;;;;3616805;39;20038;-66
2021/05/22 08:31:47;;;;;;;6.00;2.00;;;;;;;;;;3616177;39;20041;-64
2021/05/22 08:34:13;;;;;;;4.40;1.38;;;;;;;;;;3616950;39;20045;-67
2021/05/22 08:36:38;;;;;;;5.45;1.63;;;;;;;;;;3616707;39;20041;-66
2021/05/22 08:39:06;;;;;;;10.20;2.05;;;;;;;;;;3617383;39;20554;-65
2021/05/22 08:41:33;;;;;;;2.85;1.05;;;;;;;;;;3615927;39;20540;-65
2021/05/22 08:44:01;;;;;;;5.85;1.50;;;;;;;;;;3617059;39;20030;-66
2021/05/22 08:46:26;;;;;;;9.35;1.73;;;;;;;;;;3607227;39;20576;-65
2021/05/22 08:48:53;;;;;;;10.98;1.85;;;;;;;;;;3617890;39;20116;-65
2021/05/22 08:51:20;;;;;;;7.10;1.33;;;;;;;;;;3615795;39;20063;-65
2021/05/22 08:53:46;;;;;;;10.63;1.73;;;;;;;;;;3616227;39;20046;-66
2021/05/22 08:56:11;;;;;;;4.85;1.40;;;;;;;;;;3616908;39;20366;-65
2021/05/22 08:58:37;;;;;;;9.30;1.50;;;;;;;;;;3616113;39;20043;-64
2021/05/22 09:01:04;;;;;;;4.72;1.52;;;;;;;;;;3616996;39;20046;-64
2021/05/22 09:03:29;;;;;;;7.15;1.70;;;;;;;;;;3616246;39;20028;-65
2021/05/22 09:05:55;;;;;;;8.27;1.75;;;;;;;;;;3616666;39;20103;-64
2021/05/22 09:08:21;;;;;;;4.13;1.05;;;;;;;;;;3616634;39;20063;-65
2021/05/22 09:10:48;;;;;;;5.93;1.30;;;;;;;;;;3616553;39;20047;-64
2021/05/22 09:13:20;;;;;;;7.28;1.55;;;;;;;;;;3616549;39;20023;-65
2021/05/22 09:15:47;;;;;;;3.10;1.15;;;;;;;;;;3617793;39;20140;-63
2021/05/22 09:18:18;;;;;;;8.32;1.42;;;;;;;;;;3617454;39;20034;-64
2021/05/22 09:20:48;;;;;;;5.00;1.30;;;;;;;;;;3616633;39;20023;-63
2021/05/22 09:23:16;;;;;;;3.93;1.10;;;;;;;;;;3617313;39;20043;-63
2021/05/22 09:26:03;;;;;;;7.55;1.65;;;;;;;;;;3617287;39;20391;-63
2021/05/22 09:28:31;;;;;;;3.13;0.90;;;;;;;;;;3615698;39;20027;-63
2021/05/22 09:30:58;;;;;;;5.15;1.23;;;;;;;;;;3615943;39;20317;-64
2021/05/22 09:33:29;;;;;;;8.30;1.30;;;;;;;;;;3616803;39;20047;-63
2021/05/22 09:36:14;;;;;;;4.95;1.48;;;;;;;;;;3616545;39;20784;-64
2021/05/22 09:38:55;;;;;;;7.20;1.23;;;;;;;;;;3617070;39;20035;-65
2021/05/22 09:41:33;;;;;;;4.57;1.25;;;;;;;;;;3617101;39;20031;-63
2021/05/22 09:44:22;;;;;;;3.85;1.02;;;;;;;;;;3616132;39;20063;-64
2021/05/22 09:46:47;;;;;;;3.25;1.00;;;;;;;;;;3617292;39;20382;-67
2021/05/22 09:49:24;;;;;;;8.18;1.48;;;;;;;;;;3618067;39;20027;-64
2021/05/22 09:52:01;;;;;;;8.00;1.70;;;;;;;;;;3616472;39;20061;-64
2021/05/22 09:54:53;;;;;;;6.40;2.10;;;;;;;;;;3617000;39;20323;-64
2021/05/22 09:57:38;;;;;;;6.28;1.55;;;;;;;;;;3617296;39;20050;-63
2021/05/22 10:00:18;;;;;;;4.82;1.30;;;;;;;;;;3616899;39;20127;-64
2021/05/22 10:02:45;;;;;;;4.10;1.05;;;;;;;;;;3617878;39;20043;-63
2021/05/22 10:05:20;;;;;;;2.05;0.80;;;;;;;;;;3608393;39;20647;-65
2021/05/22 10:07:47;;;;;;;6.43;1.45;;;;;;;;;;3615975;39;20046;-65
2021/05/22 10:10:15;;;;;;;3.38;1.02;;;;;;;;;;3615650;39;20047;-64
2021/05/22 10:12:43;;;;;;;4.97;1.10;;;;;;;;;;3615561;39;20042;-62
2021/05/22 10:15:09;;;;;;;4.40;1.25;;;;;;;;;;3615056;39;20071;-64
2021/05/22 10:17:35;;;;;;;3.55;1.25;;;;;;;;;;3615792;39;20031;-63
2021/05/22 10:20:01;;;;;;;2.78;1.20;;;;;;;;;;3616529;39;20310;-64
2021/05/22 10:22:27;;;;;;;3.88;0.90;;;;;;;;;;3615898;39;20120;-64
2021/05/22 10:24:53;;;;;;;3.67;1.08;;;;;;;;;;3616248;39;20054;-64
2021/05/22 10:27:22;;;;;;;7.47;1.73;;;;;;;;;;3614679;39;20369;-64
2021/05/22 10:29:48;;;;;;;5.78;1.38;;;;;;;;;;3615551;39;20089;-65
2021/05/22 10:32:21;;;;;;;6.30;1.52;;;;;;;;;;3616346;39;20062;-65
2021/05/22 10:34:49;;;;;;;4.68;1.13;;;;;;;;;;3614796;39;20039;-63
2021/05/22 10:37:43;;;;;;;4.07;1.30;;;;;;;;;;3616187;39;20070;-63
2021/05/22 10:40:10;;;;;;;3.85;1.00;;;;;;;;;;3615746;39;20806;-64
2021/05/22 10:42:35;;;;;;;12.73;1.85;;;;;;;;;;3616105;39;20391;-64
2021/05/22 10:45:27;;;;;;;5.90;1.33;;;;;;;;;;3615962;39;20047;-65
2021/05/22 10:47:54;;;;;;;6.47;1.90;;;;;;;;;;3614857;39;20066;-66
2021/05/22 10:50:41;;;;;;;10.02;2.03;;;;;;;;;;3615382;39;20042;-68
2021/05/22 10:53:30;;;;;;;9.90;2.65;;;;;;;;;;3614037;39;20042;-66
2021/05/22 10:56:17;;;;;;;4.35;1.58;;;;;;;;;;3614688;39;20154;-66
2021/05/22 10:58:58;;;;;;;7.75;3.72;;;;;;;;;;3615961;39;20301;-64
2021/05/22 11:01:23;;;;;;;6.25;1.67;;;;;;;;;;3615636;39;20069;-68
2021/05/22 11:06:46;;;;;;;2.92;1.00;;;;;;;;;;3614946;39;20366;-69
2021/05/22 11:12:12;;;;;;;5.43;1.08;;;;;;;;;;3614871;39;20444;-68
2021/05/22 11:14:43;;;;;;;2.30;0.88;;;;;;;;;;3614505;39;20043;-67
2021/05/22 11:17:27;;;;;;;;;;;;;;;;;;3614548;39;20488;-64
2021/05/22 11:20:01;;;;;;;4.40;1.13;;;;;;;;;;3615865;39;19989;-64
2021/05/22 11:22:31;;;;;;;5.60;1.42;;;;;;;;;;3615954;39;20038;-62
2021/05/22 11:25:08;;;;;;;4.23;0.90;;;;;;;;;;3616931;39;20066;-65
2021/05/22 11:27:56;;;;;;;6.78;1.20;;;;;;;;;;3617632;39;20043;-62
2021/05/22 11:30:45;;;;;;;3.10;1.00;;;;;;;;;;3618412;39;20031;-63
2021/05/22 11:33:23;;;;;;;4.60;1.23;;;;;;;;;;3618900;39;20360;-60
2021/05/22 11:35:54;;;;;;;4.95;0.95;;;;;;;;;;3617108;39;20160;-64
2021/05/22 11:38:24;;;;;;;3.50;1.10;;;;;;;;;;3619042;39;20286;-63
2021/05/22 11:40:50;;;;;;;3.88;1.00;;;;;;;;;;3619679;39;20031;-63
2021/05/22 11:43:15;;;;;;;6.22;1.27;;;;;;;;;;3619093;39;20039;-60
2021/05/22 11:45:43;;;;;;;4.95;1.00;;;;;;;;;;3620751;39;20046;-62
2021/05/22 11:48:25;;;;;;;3.78;1.20;;;;;;;;;;3616218;39;20126;-63
2021/05/22 11:50:53;;;;;;;3.20;1.00;;;;;;;;;;3614884;39;20131;-62
2021/05/22 11:53:18;;;;;;;5.30;1.10;;;;;;;;;;3616653;39;20990;-63
2021/05/22 11:55:53;;;;;;;3.97;1.05;;;;;;;;;;3620847;39;20078;-60
2021/05/22 11:58:18;;;;;;;6.38;1.27;;;;;;;;;;3619853;39;20377;-62
2021/05/22 12:00:44;;;;;;;3.17;1.20;;;;;;;;;;3617236;39;20038;-62
2021/05/22 12:03:27;;;;;;;4.18;1.05;;;;;;;;;;3616815;39;20030;-61
2021/05/22 12:05:54;;;;;;;3.22;1.05;;;;;;;;;;3616419;39;20061;-62
2021/05/22 12:08:23;;;;;;;8.45;1.10;;;;;;;;;;3617094;39;20071;-66
2021/05/22 12:10:49;;;;;;;4.10;1.40;;;;;;;;;;3616498;39;20035;-60
2021/05/22 12:13:15;;;;;;;2.63;0.82;;;;;;;;;;3620623;39;20035;-61
2021/05/22 12:15:42;;;;;;;1.63;0.52;;;;;;;;;;3619305;39;20695;-61
2021/05/22 12:18:08;;;;;;;3.80;0.93;;;;;;;;;;3618020;39;20314;-62
2021/05/22 12:20:46;;;;;;;4.45;1.42;;;;;;;;;;3616430;39;20035;-62
2021/05/22 12:23:32;;;;;;;9.18;1.45;;;;;;;;;;3615842;39;20031;-62
2021/05/22 12:26:00;;;;;;;3.17;0.90;;;;;;;;;;3619944;39;20046;-62
2021/05/22 12:28:26;;;;;;;3.55;1.23;;;;;;;;;;3617878;39;20274;-63
2021/05/22 12:30:53;;;;;;;3.50;0.75;;;;;;;;;;3620641;39;20075;-63
2021/05/22 12:33:19;;;;;;;5.18;1.10;;;;;;;;;;3618816;39;20034;-62
2021/05/22 12:35:48;;;;;;;2.47;0.85;;;;;;;;;;3618159;39;20027;-61
2021/05/22 12:38:16;;;;;;;6.88;0.82;;;;;;;;;;3618533;39;20043;-62
2021/05/22 12:40:49;;;;;;;3.97;1.48;;;;;;;;;;3620547;39;20031;-63
2021/05/22 12:43:15;;;;;;;4.82;1.10;;;;;;;;;;3617939;39;20042;-61
2021/05/22 12:45:44;;;;;;;4.60;1.15;;;;;;;;;;3618252;39;20377;-62
2021/05/22 12:48:24;;;;;;;6.65;1.20;;;;;;;;;;3618945;39;20027;-61
2021/05/22 12:50:50;;;;;;;3.35;1.23;;;;;;;;;;3613119;39;20024;-61
2021/05/22 12:53:30;;;;;;;3.58;1.10;;;;;;;;;;3616263;39;20027;-62
2021/05/22 12:56:06;;;;;;;6.25;1.13;;;;;;;;;;3616868;39;20087;-60
2021/05/22 12:58:32;;;;;;;4.68;1.40;;;;;;;;;;3605880;39;20382;-62
2021/05/22 13:01:02;;;;;;;4.50;1.15;;;;;;;;;;3616077;39;20054;-60
2021/05/22 13:03:41;;;;;;;9.00;1.93;;;;;;;;;;3616172;39;20039;-62
2021/05/22 13:06:07;;;;;;;3.53;1.10;;;;;;;;;;3616389;39;20265;-66
2021/05/22 13:08:32;;;;;;;4.97;1.42;;;;;;;;;;3616695;39;20035;-63
2021/05/22 13:11:12;;;;;;;2.80;1.02;;;;;;;;;;3616775;39;20054;-61
2021/05/22 13:13:38;;;;;;;8.00;1.40;;;;;;;;;;3615835;39;20039;-70
2021/05/22 13:16:06;;;;;;;5.20;1.27;;;;;;;;;;3616710;39;20428;-62
2021/05/22 13:18:34;;;;;;;5.97;1.42;;;;;;;;;;3615822;39;20031;-62
2021/05/22 13:21:11;;;;;;;4.25;1.23;;;;;;;;;;3616548;39;20144;-61
2021/05/22 13:23:45;;;;;;;3.55;1.10;;;;;;;;;;3606885;39;20054;-60
2021/05/22 13:26:26;;;;;;;5.55;1.33;;;;;;;;;;3615798;39;20058;-61
2021/05/22 13:28:54;;;;;;;6.63;1.08;;;;;;;;;;3616449;39;20031;-62
2021/05/22 13:31:26;;;;;;;4.53;1.05;;;;;;;;;;3615719;39;20047;-61
2021/05/22 13:34:03;;;;;;;8.77;1.30;;;;;;;;;;3606888;39;20289;-62
2021/05/22 13:36:29;;;;;;;11.25;1.40;;;;;;;;;;3616408;39;20038;-62
2021/05/22 13:38:55;;;;;;;4.50;1.33;;;;;;;;;;3616558;39;20031;-60
2021/05/22 13:41:44;;;;;;;3.97;1.00;;;;;;;;;;3615850;39;20039;-61
2021/05/22 13:44:11;;;;;;;2.85;0.90;;;;;;;;;;3615665;39;20027;-62
2021/05/22 13:46:37;;;;;;;2.72;1.10;;;;;;;;;;3616235;39;20050;-62
2021/05/22 13:49:03;;;;;;;4.80;1.17;;;;;;;;;;3615757;39;20035;-61
2021/05/22 13:51:33;;;;;;;4.38;1.10;;;;;;;;;;3616505;39;20026;-61
2021/05/22 13:53:59;;;;;;;3.20;0.90;;;;;;;;;;3616756;39;20047;-61
2021/05/22 13:56:24;;;;;;;2.13;0.85;;;;;;;;;;3606627;39;20502;-61
2021/05/22 13:58:51;;;;;;;7.35;1.42;;;;;;;;;;3616638;39;20088;-61
2021/05/22 14:01:17;;;;;;;6.03;1.42;;;;;;;;;;3616184;39;20049;-61
2021/05/22 14:03:42;;;;;;;5.28;1.27;;;;;;;;;;3616121;39;20051;-61
2021/05/22 14:06:09;;;;;;;3.80;1.08;;;;;;;;;;3615789;39;20048;-64
2021/05/22 14:08:34;;;;;;;4.18;1.50;;;;;;;;;;3615877;39;20035;-62
2021/05/22 14:10:59;;;;;;;10.18;1.20;;;;;;;;;;3613777;39;20035;-62
2021/05/22 14:13:25;;;;;;;4.57;1.67;;;;;;;;;;3606281;39;20039;-62
2021/05/22 14:15:50;;;;;;;3.40;1.02;;;;;;;;;;3616365;39;20035;-65
2021/05/22 14:18:22;;;;;;;2.22;0.90;;;;;;;;;;3615980;39;20031;-62
2021/05/22 14:20:47;;;;;;;3.08;1.17;;;;;;;;;;3615655;39;20395;-61
2021/05/22 14:23:12;;;;;;;13.32;1.50;;;;;;;;;;3615952;39;20051;-62
2021/05/22 14:25:38;;;;;;;4.72;1.30;;;;;;;;;;3616187;39;20139;-61
2021/05/22 14:28:03;;;;;;;5.40;0.82;;;;;;;;;;3614021;39;20382;-61
2021/05/22 14:30:29;;;;;;;5.97;1.08;;;;;;;;;;3615955;39;20031;-61
2021/05/22 14:32:54;;;;;;;2.63;0.77;;;;;;;;;;3616186;39;20098;-61
2021/05/22 14:35:22;;;;;;;3.67;1.08;;;;;;;;;;3615664;39;20267;-62
2021/05/22 14:37:47;;;;;;;2.88;0.88;;;;;;;;;;3616088;39;20050;-62
2021/05/22 14:40:15;;;;;;;4.47;1.10;;;;;;;;;;3615335;39;20415;-65
2021/05/22 14:42:40;;;;;;;4.80;1.40;;;;;;;;;;3606324;39;20061;-62
2021/05/22 14:45:08;;;;;;;3.90;1.27;;;;;;;;;;3615032;39;20340;-62
2021/05/22 14:47:34;;;;;;;5.85;1.20;;;;;;;;;;3615126;39;20171;-61
2021/05/22 14:50:00;;;;;;;4.63;1.20;;;;;;;;;;3615183;39;20047;-61
2021/05/22 14:52:25;;;;;;;2.78;0.98;;;;;;;;;;3615989;39;20039;-62
2021/05/22 14:54:50;;;;;;;4.25;1.17;;;;;;;;;;3615248;39;20329;-61